sensor_id;sensor_type;location;lat;lon;timestamp;P1;durP1;ratioP1;P2;durP2;ratioP2
37943;SDS011;23767;42.024;23.086;2023-10-19T00:01:58;9.02;;;4.47;;
37943;SDS011;23767;42.024;23.086;2023-10-19T00:04:25;7.25;;;4.82;;
37943;SDS011;23767;42.024;23.086;2023-10-19T00:06:52;5.95;;;4.60;;
37943;SDS011;23767;42.024;23.086;2023-10-19T00:09:20;7.95;;;6.05;;
37943;SDS011;23767;42.024;23.086;2023-10-19T00:11:46;6.72;;;5.70;;
37943;SDS011;23767;42.024;23.086;2023-10-19T00:14:16;6.10;;;5.10;;
37943;SDS011;23767;42.024;23.086;2023-10-19T00:16:45;6.93;;;5.55;;
37943;SDS011;23767;42.024;23.086;2023-10-19T00:19:25;6.60;;;5.50;;
37943;SDS011;23767;42.024;23.086;2023-10-19T00:21:53;8.68;;;5.28;;
37943;SDS011;23767;42.024;23.086;2023-10-19T00:24:42;7.43;;;4.47;;
37943;SDS011;23767;42.024;23.086;2023-10-19T00:27:09;6.88;;;4.70;;
37943;SDS011;23767;42.024;23.086;2023-10-19T00:29:47;7.35;;;4.88;;
37943;SDS011;23767;42.024;23.086;2023-10-19T00:32:14;7.72;;;4.10;;
37943;SDS011;23767;42.024;23.086;2023-10-19T00:34:41;9.88;;;4.50;;
37943;SDS011;23767;42.024;23.086;2023-10-19T00:37:15;5.72;;;4.38;;
37943;SDS011;23767;42.024;23.086;2023-10-19T00:39:44;5.30;;;3.45;;
37943;SDS011;23767;42.024;23.086;2023-10-19T00:42:19;5.68;;;3.38;;
37943;SDS011;23767;42.024;23.086;2023-10-19T00:44:55;5.05;;;3.28;;
37943;SDS011;23767;42.024;23.086;2023-10-19T00:47:27;4.07;;;2.70;;
37943;SDS011;23767;42.024;23.086;2023-10-19T00:50:03;4.32;;;2.80;;
37943;SDS011;23767;42.024;23.086;2023-10-19T00:52:30;4.32;;;2.80;;
37943;SDS011;23767;42.024;23.086;2023-10-19T00:54:57;6.70;;;2.42;;
37943;SDS011;23767;42.024;23.086;2023-10-19T00:57:24;4.90;;;2.70;;
37943;SDS011;23767;42.024;23.086;2023-10-19T01:00:01;4.47;;;2.95;;
37943;SDS011;23767;42.024;23.086;2023-10-19T01:02:39;4.40;;;2.38;;
37943;SDS011;23767;42.024;23.086;2023-10-19T01:05:10;4.80;;;2.25;;
37943;SDS011;23767;42.024;23.086;2023-10-19T01:07:38;4.88;;;2.30;;
37943;SDS011;23767;42.024;23.086;2023-10-19T01:10:06;4.13;;;2.40;;
37943;SDS011;23767;42.024;23.086;2023-10-19T01:15:24;5.15;;;2.40;;
37943;SDS011;23767;42.024;23.086;2023-10-19T01:17:54;5.03;;;2.83;;
37943;SDS011;23767;42.024;23.086;2023-10-19T01:20:25;6.20;;;2.50;;
37943;SDS011;23767;42.024;23.086;2023-10-19T01:23:00;6.95;;;2.88;;
37943;SDS011;23767;42.024;23.086;2023-10-19T01:28:17;4.70;;;3.03;;
37943;SDS011;23767;42.024;23.086;2023-10-19T01:30:43;5.97;;;3.05;;
37943;SDS011;23767;42.024;23.086;2023-10-19T01:33:10;7.10;;;3.00;;
37943;SDS011;23767;42.024;23.086;2023-10-19T01:35:41;5.35;;;4.03;;
37943;SDS011;23767;42.024;23.086;2023-10-19T01:38:25;6.18;;;4.15;;
37943;SDS011;23767;42.024;23.086;2023-10-19T01:40:55;6.45;;;4.38;;
37943;SDS011;23767;42.024;23.086;2023-10-19T01:43:24;9.68;;;5.00;;
37943;SDS011;23767;42.024;23.086;2023-10-19T01:45:54;6.68;;;5.10;;
37943;SDS011;23767;42.024;23.086;2023-10-19T01:48:20;5.53;;;4.55;;
37943;SDS011;23767;42.024;23.086;2023-10-19T01:50:53;8.40;;;5.28;;
37943;SDS011;23767;42.024;23.086;2023-10-19T01:53:19;5.65;;;4.30;;
37943;SDS011;23767;42.024;23.086;2023-10-19T01:55:50;6.72;;;4.25;;
37943;SDS011;23767;42.024;23.086;2023-10-19T01:58:23;5.75;;;4.05;;
37943;SDS011;23767;42.024;23.086;2023-10-19T02:00:50;5.90;;;4.43;;
37943;SDS011;23767;42.024;23.086;2023-10-19T02:03:20;6.55;;;4.13;;
37943;SDS011;23767;42.024;23.086;2023-10-19T02:05:56;7.65;;;3.55;;
37943;SDS011;23767;42.024;23.086;2023-10-19T02:08:24;6.97;;;3.60;;
37943;SDS011;23767;42.024;23.086;2023-10-19T02:10:51;5.38;;;3.00;;
37943;SDS011;23767;42.024;23.086;2023-10-19T02:13:18;5.35;;;2.65;;
37943;SDS011;23767;42.024;23.086;2023-10-19T02:15:44;4.20;;;2.53;;
37943;SDS011;23767;42.024;23.086;2023-10-19T02:18:10;5.80;;;2.70;;
37943;SDS011;23767;42.024;23.086;2023-10-19T02:20:37;3.80;;;2.40;;
37943;SDS011;23767;42.024;23.086;2023-10-19T02:23:09;3.90;;;2.30;;
37943;SDS011;23767;42.024;23.086;2023-10-19T02:25:36;4.97;;;2.45;;
37943;SDS011;23767;42.024;23.086;2023-10-19T02:28:03;4.97;;;1.80;;
37943;SDS011;23767;42.024;23.086;2023-10-19T02:30:34;5.35;;;2.10;;
37943;SDS011;23767;42.024;23.086;2023-10-19T02:33:00;5.75;;;2.30;;
37943;SDS011;23767;42.024;23.086;2023-10-19T02:35:28;3.90;;;2.05;;
37943;SDS011;23767;42.024;23.086;2023-10-19T02:37:55;4.55;;;2.40;;
37943;SDS011;23767;42.024;23.086;2023-10-19T02:40:23;4.55;;;2.85;;
37943;SDS011;23767;42.024;23.086;2023-10-19T02:42:50;6.13;;;3.40;;
37943;SDS011;23767;42.024;23.086;2023-10-19T02:45:16;7.90;;;4.20;;
37943;SDS011;23767;42.024;23.086;2023-10-19T02:47:43;7.18;;;3.20;;
37943;SDS011;23767;42.024;23.086;2023-10-19T02:50:10;7.60;;;2.08;;
37943;SDS011;23767;42.024;23.086;2023-10-19T02:52:41;4.57;;;2.03;;
37943;SDS011;23767;42.024;23.086;2023-10-19T02:55:08;4.57;;;1.80;;
37943;SDS011;23767;42.024;23.086;2023-10-19T02:57:35;5.82;;;1.60;;
37943;SDS011;23767;42.024;23.086;2023-10-19T03:00:04;4.72;;;2.00;;
37943;SDS011;23767;42.024;23.086;2023-10-19T03:02:38;3.70;;;2.20;;
37943;SDS011;23767;42.024;23.086;2023-10-19T03:05:04;6.20;;;3.75;;
37943;SDS011;23767;42.024;23.086;2023-10-19T03:07:42;6.32;;;3.55;;
37943;SDS011;23767;42.024;23.086;2023-10-19T03:10:09;5.38;;;2.83;;
37943;SDS011;23767;42.024;23.086;2023-10-19T03:13:04;4.55;;;3.25;;
37943;SDS011;23767;42.024;23.086;2023-10-19T03:15:30;5.45;;;3.95;;
37943;SDS011;23767;42.024;23.086;2023-10-19T03:17:58;5.60;;;3.92;;
37943;SDS011;23767;42.024;23.086;2023-10-19T03:20:27;5.88;;;4.30;;
37943;SDS011;23767;42.024;23.086;2023-10-19T03:22:53;6.05;;;4.70;;
37943;SDS011;23767;42.024;23.086;2023-10-19T03:25:23;5.20;;;4.15;;
37943;SDS011;23767;42.024;23.086;2023-10-19T03:28:08;7.18;;;4.40;;
37943;SDS011;23767;42.024;23.086;2023-10-19T03:30:36;7.78;;;4.38;;
37943;SDS011;23767;42.024;23.086;2023-10-19T03:33:04;5.65;;;4.38;;
37943;SDS011;23767;42.024;23.086;2023-10-19T03:35:30;6.45;;;4.05;;
37943;SDS011;23767;42.024;23.086;2023-10-19T03:37:56;5.47;;;4.38;;
37943;SDS011;23767;42.024;23.086;2023-10-19T03:40:25;6.30;;;4.93;;
37943;SDS011;23767;42.024;23.086;2023-10-19T03:42:56;5.90;;;4.63;;
37943;SDS011;23767;42.024;23.086;2023-10-19T03:45:23;6.28;;;5.25;;
37943;SDS011;23767;42.024;23.086;2023-10-19T03:47:52;7.10;;;4.97;;
37943;SDS011;23767;42.024;23.086;2023-10-19T03:50:20;6.25;;;5.07;;
37943;SDS011;23767;42.024;23.086;2023-10-19T03:52:47;8.35;;;5.47;;
37943;SDS011;23767;42.024;23.086;2023-10-19T03:55:13;9.30;;;6.10;;
37943;SDS011;23767;42.024;23.086;2023-10-19T03:57:48;11.88;;;7.05;;
37943;SDS011;23767;42.024;23.086;2023-10-19T04:00:20;10.73;;;7.20;;
37943;SDS011;23767;42.024;23.086;2023-10-19T04:02:50;11.48;;;7.05;;
37943;SDS011;23767;42.024;23.086;2023-10-19T04:05:18;10.25;;;8.02;;
37943;SDS011;23767;42.024;23.086;2023-10-19T04:07:50;9.45;;;7.70;;
37943;SDS011;23767;42.024;23.086;2023-10-19T04:10:20;9.65;;;7.15;;
37943;SDS011;23767;42.024;23.086;2023-10-19T04:12:55;12.55;;;7.18;;
37943;SDS011;23767;42.024;23.086;2023-10-19T04:15:24;12.05;;;7.68;;
37943;SDS011;23767;42.024;23.086;2023-10-19T04:17:51;11.25;;;8.20;;
37943;SDS011;23767;42.024;23.086;2023-10-19T04:20:23;13.82;;;7.45;;
37943;SDS011;23767;42.024;23.086;2023-10-19T04:23:07;8.52;;;6.50;;
37943;SDS011;23767;42.024;23.086;2023-10-19T04:25:36;8.25;;;6.07;;
37943;SDS011;23767;42.024;23.086;2023-10-19T04:28:02;10.20;;;6.65;;
37943;SDS011;23767;42.024;23.086;2023-10-19T04:30:30;10.00;;;6.60;;
37943;SDS011;23767;42.024;23.086;2023-10-19T04:32:58;9.38;;;6.20;;
37943;SDS011;23767;42.024;23.086;2023-10-19T04:35:32;12.02;;;6.78;;
37943;SDS011;23767;42.024;23.086;2023-10-19T04:37:59;8.30;;;6.15;;
37943;SDS011;23767;42.024;23.086;2023-10-19T04:40:26;11.15;;;6.45;;
37943;SDS011;23767;42.024;23.086;2023-10-19T04:42:52;9.95;;;6.75;;
37943;SDS011;23767;42.024;23.086;2023-10-19T04:45:19;11.43;;;7.00;;
37943;SDS011;23767;42.024;23.086;2023-10-19T04:47:45;9.23;;;6.28;;
37943;SDS011;23767;42.024;23.086;2023-10-19T04:50:11;11.60;;;6.70;;
37943;SDS011;23767;42.024;23.086;2023-10-19T04:52:38;9.43;;;6.15;;
37943;SDS011;23767;42.024;23.086;2023-10-19T04:55:04;12.07;;;5.65;;
37943;SDS011;23767;42.024;23.086;2023-10-19T04:57:30;11.82;;;6.72;;
37943;SDS011;23767;42.024;23.086;2023-10-19T04:59:57;10.77;;;6.28;;
37943;SDS011;23767;42.024;23.086;2023-10-19T05:02:23;11.43;;;6.57;;
37943;SDS011;23767;42.024;23.086;2023-10-19T05:04:49;8.43;;;6.22;;
37943;SDS011;23767;42.024;23.086;2023-10-19T05:07:15;10.38;;;6.68;;
37943;SDS011;23767;42.024;23.086;2023-10-19T05:09:42;8.02;;;5.45;;
37943;SDS011;23767;42.024;23.086;2023-10-19T05:12:08;10.55;;;5.40;;
37943;SDS011;23767;42.024;23.086;2023-10-19T05:14:35;11.48;;;5.55;;
37943;SDS011;23767;42.024;23.086;2023-10-19T05:17:01;7.72;;;5.68;;
37943;SDS011;23767;42.024;23.086;2023-10-19T05:19:30;7.63;;;5.25;;
37943;SDS011;23767;42.024;23.086;2023-10-19T05:21:56;8.98;;;6.32;;
37943;SDS011;23767;42.024;23.086;2023-10-19T05:24:22;8.52;;;5.50;;
37943;SDS011;23767;42.024;23.086;2023-10-19T05:26:48;9.90;;;5.40;;
37943;SDS011;23767;42.024;23.086;2023-10-19T05:29:14;11.68;;;5.38;;
37943;SDS011;23767;42.024;23.086;2023-10-19T05:31:40;7.35;;;5.00;;
37943;SDS011;23767;42.024;23.086;2023-10-19T05:34:06;8.40;;;5.30;;
37943;SDS011;23767;42.024;23.086;2023-10-19T05:36:33;8.05;;;5.57;;
37943;SDS011;23767;42.024;23.086;2023-10-19T05:38:59;8.95;;;5.85;;
37943;SDS011;23767;42.024;23.086;2023-10-19T05:41:25;11.95;;;5.82;;
37943;SDS011;23767;42.024;23.086;2023-10-19T05:43:52;11.82;;;6.40;;
37943;SDS011;23767;42.024;23.086;2023-10-19T05:46:18;9.93;;;5.95;;
37943;SDS011;23767;42.024;23.086;2023-10-19T05:48:47;9.73;;;6.15;;
37943;SDS011;23767;42.024;23.086;2023-10-19T05:51:19;11.95;;;5.82;;
37943;SDS011;23767;42.024;23.086;2023-10-19T05:53:45;8.63;;;6.03;;
37943;SDS011;23767;42.024;23.086;2023-10-19T05:56:11;11.05;;;6.82;;
37943;SDS011;23767;42.024;23.086;2023-10-19T05:58:37;8.50;;;6.32;;
37943;SDS011;23767;42.024;23.086;2023-10-19T06:01:03;13.45;;;7.07;;
37943;SDS011;23767;42.024;23.086;2023-10-19T06:03:29;12.75;;;7.20;;
37943;SDS011;23767;42.024;23.086;2023-10-19T06:05:56;9.20;;;5.97;;
37943;SDS011;23767;42.024;23.086;2023-10-19T06:08:23;8.25;;;6.38;;
37943;SDS011;23767;42.024;23.086;2023-10-19T06:10:52;10.50;;;6.45;;
37943;SDS011;23767;42.024;23.086;2023-10-19T06:13:18;9.77;;;6.72;;
37943;SDS011;23767;42.024;23.086;2023-10-19T06:15:45;10.30;;;6.70;;
37943;SDS011;23767;42.024;23.086;2023-10-19T06:18:11;13.25;;;6.60;;
37943;SDS011;23767;42.024;23.086;2023-10-19T06:20:42;9.68;;;6.40;;
37943;SDS011;23767;42.024;23.086;2023-10-19T06:23:09;14.15;;;6.60;;
37943;SDS011;23767;42.024;23.086;2023-10-19T06:25:36;9.07;;;5.95;;
37943;SDS011;23767;42.024;23.086;2023-10-19T06:28:03;10.70;;;6.13;;
37943;SDS011;23767;42.024;23.086;2023-10-19T06:30:30;9.18;;;6.10;;
37943;SDS011;23767;42.024;23.086;2023-10-19T06:32:57;10.80;;;6.35;;
37943;SDS011;23767;42.024;23.086;2023-10-19T06:35:26;9.27;;;6.05;;
37943;SDS011;23767;42.024;23.086;2023-10-19T06:37:52;9.45;;;6.03;;
37943;SDS011;23767;42.024;23.086;2023-10-19T06:40:20;10.07;;;6.10;;
37943;SDS011;23767;42.024;23.086;2023-10-19T06:42:47;8.68;;;6.20;;
37943;SDS011;23767;42.024;23.086;2023-10-19T06:45:14;14.98;;;7.20;;
37943;SDS011;23767;42.024;23.086;2023-10-19T06:47:41;10.63;;;6.05;;
37943;SDS011;23767;42.024;23.086;2023-10-19T06:50:07;10.98;;;6.22;;
37943;SDS011;23767;42.024;23.086;2023-10-19T06:52:35;14.90;;;7.63;;
37943;SDS011;23767;42.024;23.086;2023-10-19T06:55:05;17.00;;;6.72;;
37943;SDS011;23767;42.024;23.086;2023-10-19T06:57:38;8.32;;;5.30;;
37943;SDS011;23767;42.024;23.086;2023-10-19T07:00:04;12.73;;;6.65;;
37943;SDS011;23767;42.024;23.086;2023-10-19T07:02:39;17.30;;;11.32;;
37943;SDS011;23767;42.024;23.086;2023-10-19T07:05:06;13.52;;;9.63;;
37943;SDS011;23767;42.024;23.086;2023-10-19T07:07:35;14.07;;;7.22;;
37943;SDS011;23767;42.024;23.086;2023-10-19T07:10:03;11.82;;;5.97;;
37943;SDS011;23767;42.024;23.086;2023-10-19T07:12:29;9.45;;;5.45;;
37943;SDS011;23767;42.024;23.086;2023-10-19T07:14:56;9.85;;;5.20;;
37943;SDS011;23767;42.024;23.086;2023-10-19T07:17:25;9.95;;;4.70;;
37943;SDS011;23767;42.024;23.086;2023-10-19T07:19:52;7.32;;;4.88;;
37943;SDS011;23767;42.024;23.086;2023-10-19T07:22:18;9.98;;;4.93;;
37943;SDS011;23767;42.024;23.086;2023-10-19T07:24:48;9.90;;;4.95;;
37943;SDS011;23767;42.024;23.086;2023-10-19T07:27:14;12.23;;;5.13;;
37943;SDS011;23767;42.024;23.086;2023-10-19T07:29:46;7.78;;;4.90;;
37943;SDS011;23767;42.024;23.086;2023-10-19T07:32:15;10.80;;;6.13;;
37943;SDS011;23767;42.024;23.086;2023-10-19T07:34:42;9.98;;;5.93;;
37943;SDS011;23767;42.024;23.086;2023-10-19T07:37:11;12.82;;;5.78;;
37943;SDS011;23767;42.024;23.086;2023-10-19T07:39:47;12.60;;;6.05;;
37943;SDS011;23767;42.024;23.086;2023-10-19T07:44:39;15.95;;;6.28;;
37943;SDS011;23767;42.024;23.086;2023-10-19T07:47:05;14.10;;;5.80;;
37943;SDS011;23767;42.024;23.086;2023-10-19T07:49:34;7.32;;;5.07;;
37943;SDS011;23767;42.024;23.086;2023-10-19T07:52:03;8.93;;;5.00;;
37943;SDS011;23767;42.024;23.086;2023-10-19T07:54:31;10.27;;;4.78;;
37943;SDS011;23767;42.024;23.086;2023-10-19T07:56:57;11.55;;;4.93;;
37943;SDS011;23767;42.024;23.086;2023-10-19T07:59:24;7.53;;;3.90;;
37943;SDS011;23767;42.024;23.086;2023-10-19T08:01:50;10.40;;;4.13;;
37943;SDS011;23767;42.024;23.086;2023-10-19T08:04:16;9.43;;;3.45;;
37943;SDS011;23767;42.024;23.086;2023-10-19T08:06:42;7.45;;;3.47;;
37943;SDS011;23767;42.024;23.086;2023-10-19T08:09:09;6.55;;;3.22;;
37943;SDS011;23767;42.024;23.086;2023-10-19T08:11:36;7.80;;;3.60;;
37943;SDS011;23767;42.024;23.086;2023-10-19T08:14:02;5.20;;;3.03;;
37943;SDS011;23767;42.024;23.086;2023-10-19T08:16:28;8.02;;;2.60;;
37943;SDS011;23767;42.024;23.086;2023-10-19T08:18:54;6.85;;;2.72;;
37943;SDS011;23767;42.024;23.086;2023-10-19T08:21:21;5.80;;;2.55;;
37943;SDS011;23767;42.024;23.086;2023-10-19T08:23:48;5.72;;;2.60;;
37943;SDS011;23767;42.024;23.086;2023-10-19T08:26:14;4.22;;;2.40;;
37943;SDS011;23767;42.024;23.086;2023-10-19T08:28:40;6.22;;;2.33;;
37943;SDS011;23767;42.024;23.086;2023-10-19T08:31:09;4.07;;;2.50;;
37943;SDS011;23767;42.024;23.086;2023-10-19T08:33:35;7.47;;;2.65;;
37943;SDS011;23767;42.024;23.086;2023-10-19T08:36:04;7.25;;;2.80;;
37943;SDS011;23767;42.024;23.086;2023-10-19T08:38:30;5.32;;;2.28;;
37943;SDS011;23767;42.024;23.086;2023-10-19T08:40:56;6.45;;;2.70;;
37943;SDS011;23767;42.024;23.086;2023-10-19T08:43:23;5.55;;;1.90;;
37943;SDS011;23767;42.024;23.086;2023-10-19T08:45:49;4.95;;;2.30;;
37943;SDS011;23767;42.024;23.086;2023-10-19T08:48:15;4.15;;;1.98;;
37943;SDS011;23767;42.024;23.086;2023-10-19T08:50:41;8.20;;;2.20;;
37943;SDS011;23767;42.024;23.086;2023-10-19T08:53:08;4.75;;;2.70;;
37943;SDS011;23767;42.024;23.086;2023-10-19T08:55:34;6.07;;;2.42;;
37943;SDS011;23767;42.024;23.086;2023-10-19T08:58:00;8.18;;;2.60;;
37943;SDS011;23767;42.024;23.086;2023-10-19T09:00:38;4.65;;;2.15;;
37943;SDS011;23767;42.024;23.086;2023-10-19T09:03:08;9.60;;;1.80;;
37943;SDS011;23767;42.024;23.086;2023-10-19T09:05:34;5.18;;;2.33;;
37943;SDS011;23767;42.024;23.086;2023-10-19T09:08:05;4.32;;;2.30;;
37943;SDS011;23767;42.024;23.086;2023-10-19T09:10:31;6.28;;;2.30;;
37943;SDS011;23767;42.024;23.086;2023-10-19T09:13:04;7.05;;;2.35;;
37943;SDS011;23767;42.024;23.086;2023-10-19T09:15:34;5.57;;;2.30;;
37943;SDS011;23767;42.024;23.086;2023-10-19T09:18:22;5.15;;;2.97;;
37943;SDS011;23767;42.024;23.086;2023-10-19T09:20:50;6.07;;;2.55;;
37943;SDS011;23767;42.024;23.086;2023-10-19T09:23:23;4.65;;;2.03;;
37943;SDS011;23767;42.024;23.086;2023-10-19T09:25:56;5.15;;;2.45;;
37943;SDS011;23767;42.024;23.086;2023-10-19T09:28:22;4.13;;;2.22;;
37943;SDS011;23767;42.024;23.086;2023-10-19T09:30:49;5.45;;;1.90;;
37943;SDS011;23767;42.024;23.086;2023-10-19T09:33:15;4.00;;;1.95;;
37943;SDS011;23767;42.024;23.086;2023-10-19T09:35:43;5.18;;;2.03;;
37943;SDS011;23767;42.024;23.086;2023-10-19T09:38:10;7.88;;;2.28;;
37943;SDS011;23767;42.024;23.086;2023-10-19T09:40:37;8.57;;;2.00;;
37943;SDS011;23767;42.024;23.086;2023-10-19T09:43:04;6.75;;;1.98;;
37943;SDS011;23767;42.024;23.086;2023-10-19T09:45:32;4.18;;;1.90;;
37943;SDS011;23767;42.024;23.086;2023-10-19T09:48:00;4.82;;;1.80;;
37943;SDS011;23767;42.024;23.086;2023-10-19T09:50:27;3.85;;;1.70;;
37943;SDS011;23767;42.024;23.086;2023-10-19T09:52:54;4.25;;;1.73;;
37943;SDS011;23767;42.024;23.086;2023-10-19T09:55:28;3.83;;;1.85;;
37943;SDS011;23767;42.024;23.086;2023-10-19T09:57:56;3.95;;;2.00;;
37943;SDS011;23767;42.024;23.086;2023-10-19T10:00:24;3.33;;;1.70;;
37943;SDS011;23767;42.024;23.086;2023-10-19T10:02:51;4.45;;;1.75;;
37943;SDS011;23767;42.024;23.086;2023-10-19T10:10:45;3.17;;;1.85;;
37943;SDS011;23767;42.024;23.086;2023-10-19T10:15:56;4.15;;;2.25;;
37943;SDS011;23767;42.024;23.086;2023-10-19T10:18:26;3.95;;;1.90;;
37943;SDS011;23767;42.024;23.086;2023-10-19T10:21:11;3.58;;;1.83;;
37943;SDS011;23767;42.024;23.086;2023-10-19T10:26:11;5.20;;;1.73;;
37943;SDS011;23767;42.024;23.086;2023-10-19T10:28:38;3.63;;;1.90;;
37943;SDS011;23767;42.024;23.086;2023-10-19T10:31:11;3.67;;;1.83;;
37943;SDS011;23767;42.024;23.086;2023-10-19T10:33:50;4.28;;;1.83;;
37943;SDS011;23767;42.024;23.086;2023-10-19T10:36:19;4.70;;;1.63;;
37943;SDS011;23767;42.024;23.086;2023-10-19T10:38:46;4.03;;;2.03;;
37943;SDS011;23767;42.024;23.086;2023-10-19T10:41:19;3.90;;;1.80;;
37943;SDS011;23767;42.024;23.086;2023-10-19T10:43:48;3.55;;;1.70;;
37943;SDS011;23767;42.024;23.086;2023-10-19T10:46:17;4.15;;;1.90;;
37943;SDS011;23767;42.024;23.086;2023-10-19T10:48:43;3.38;;;1.70;;
37943;SDS011;23767;42.024;23.086;2023-10-19T10:51:16;2.85;;;1.63;;
37943;SDS011;23767;42.024;23.086;2023-10-19T10:53:43;5.35;;;1.70;;
37943;SDS011;23767;42.024;23.086;2023-10-19T10:56:09;4.10;;;1.90;;
37943;SDS011;23767;42.024;23.086;2023-10-19T10:58:35;6.35;;;1.90;;
37943;SDS011;23767;42.024;23.086;2023-10-19T11:01:01;7.90;;;1.77;;
37943;SDS011;23767;42.024;23.086;2023-10-19T11:03:27;5.03;;;1.85;;
37943;SDS011;23767;42.024;23.086;2023-10-19T11:05:55;5.57;;;1.70;;
37943;SDS011;23767;42.024;23.086;2023-10-19T11:08:24;4.28;;;1.95;;
37943;SDS011;23767;42.024;23.086;2023-10-19T11:10:50;4.03;;;1.70;;
37943;SDS011;23767;42.024;23.086;2023-10-19T11:13:18;3.60;;;1.90;;
37943;SDS011;23767;42.024;23.086;2023-10-19T11:15:52;4.72;;;1.70;;
37943;SDS011;23767;42.024;23.086;2023-10-19T11:18:35;6.72;;;1.70;;
37943;SDS011;23767;42.024;23.086;2023-10-19T11:21:06;5.55;;;2.00;;
37943;SDS011;23767;42.024;23.086;2023-10-19T11:23:35;2.53;;;1.35;;
37943;SDS011;23767;42.024;23.086;2023-10-19T11:26:02;5.30;;;1.60;;
37943;SDS011;23767;42.024;23.086;2023-10-19T11:28:29;2.58;;;1.30;;
37943;SDS011;23767;42.024;23.086;2023-10-19T11:31:09;2.58;;;1.60;;
37943;SDS011;23767;42.024;23.086;2023-10-19T11:33:35;3.65;;;1.83;;
37943;SDS011;23767;42.024;23.086;2023-10-19T11:36:02;3.05;;;1.65;;
37943;SDS011;23767;42.024;23.086;2023-10-19T11:38:28;5.25;;;1.90;;
37943;SDS011;23767;42.024;23.086;2023-10-19T11:40:54;3.97;;;1.90;;
37943;SDS011;23767;42.024;23.086;2023-10-19T11:43:20;3.35;;;1.60;;
37943;SDS011;23767;42.024;23.086;2023-10-19T11:45:46;3.45;;;1.75;;
37943;SDS011;23767;42.024;23.086;2023-10-19T11:48:12;4.40;;;2.00;;
37943;SDS011;23767;42.024;23.086;2023-10-19T11:50:38;2.72;;;1.50;;
37943;SDS011;23767;42.024;23.086;2023-10-19T11:53:04;3.33;;;1.67;;
37943;SDS011;23767;42.024;23.086;2023-10-19T11:55:30;4.05;;;2.08;;
37943;SDS011;23767;42.024;23.086;2023-10-19T11:57:56;5.57;;;1.90;;
37943;SDS011;23767;42.024;23.086;2023-10-19T12:00:22;7.03;;;2.22;;
37943;SDS011;23767;42.024;23.086;2023-10-19T12:02:58;3.03;;;1.65;;
37943;SDS011;23767;42.024;23.086;2023-10-19T12:05:24;5.32;;;1.95;;
37943;SDS011;23767;42.024;23.086;2023-10-19T12:07:50;3.45;;;1.65;;
37943;SDS011;23767;42.024;23.086;2023-10-19T12:10:17;5.50;;;1.88;;
37943;SDS011;23767;42.024;23.086;2023-10-19T12:12:50;3.15;;;1.60;;
37943;SDS011;23767;42.024;23.086;2023-10-19T12:15:17;4.30;;;1.70;;
37943;SDS011;23767;42.024;23.086;2023-10-19T12:17:47;6.32;;;2.17;;
37943;SDS011;23767;42.024;23.086;2023-10-19T12:20:15;2.72;;;1.40;;
37943;SDS011;23767;42.024;23.086;2023-10-19T12:22:41;4.05;;;1.50;;
37943;SDS011;23767;42.024;23.086;2023-10-19T12:25:07;3.70;;;1.60;;
37943;SDS011;23767;42.024;23.086;2023-10-19T12:27:34;4.63;;;1.77;;
37943;SDS011;23767;42.024;23.086;2023-10-19T12:30:03;3.42;;;1.58;;
37943;SDS011;23767;42.024;23.086;2023-10-19T12:32:38;3.75;;;1.70;;
37943;SDS011;23767;42.024;23.086;2023-10-19T12:35:04;2.92;;;1.48;;
37943;SDS011;23767;42.024;23.086;2023-10-19T12:37:36;3.45;;;1.60;;
37943;SDS011;23767;42.024;23.086;2023-10-19T12:40:11;4.03;;;1.70;;
37943;SDS011;23767;42.024;23.086;2023-10-19T12:42:51;2.80;;;1.40;;
37943;SDS011;23767;42.024;23.086;2023-10-19T12:45:19;2.72;;;1.33;;
37943;SDS011;23767;42.024;23.086;2023-10-19T12:47:45;2.47;;;1.42;;
37943;SDS011;23767;42.024;23.086;2023-10-19T12:50:14;5.28;;;1.50;;
37943;SDS011;23767;42.024;23.086;2023-10-19T12:52:41;5.03;;;1.63;;
37943;SDS011;23767;42.024;23.086;2023-10-19T12:55:07;3.88;;;1.50;;
37943;SDS011;23767;42.024;23.086;2023-10-19T12:57:34;7.63;;;6.38;;
37943;SDS011;23767;42.024;23.086;2023-10-19T13:00:00;3.65;;;1.55;;
37943;SDS011;23767;42.024;23.086;2023-10-19T13:02:46;4.40;;;1.80;;
37943;SDS011;23767;42.024;23.086;2023-10-19T13:05:12;5.43;;;1.60;;
37943;SDS011;23767;42.024;23.086;2023-10-19T13:07:43;3.03;;;1.60;;
37943;SDS011;23767;42.024;23.086;2023-10-19T13:10:09;5.22;;;1.73;;
37943;SDS011;23767;42.024;23.086;2023-10-19T13:12:36;5.15;;;1.80;;
37943;SDS011;23767;42.024;23.086;2023-10-19T13:15:03;3.63;;;1.60;;
37943;SDS011;23767;42.024;23.086;2023-10-19T13:17:32;4.97;;;1.80;;
37943;SDS011;23767;42.024;23.086;2023-10-19T13:20:00;5.45;;;1.80;;
37943;SDS011;23767;42.024;23.086;2023-10-19T13:22:36;3.60;;;1.70;;
37943;SDS011;23767;42.024;23.086;2023-10-19T13:25:03;3.50;;;1.80;;
37943;SDS011;23767;42.024;23.086;2023-10-19T13:27:34;4.90;;;1.55;;
37943;SDS011;23767;42.024;23.086;2023-10-19T13:30:00;5.43;;;1.73;;
37943;SDS011;23767;42.024;23.086;2023-10-19T13:32:29;3.95;;;1.48;;
37943;SDS011;23767;42.024;23.086;2023-10-19T13:34:56;4.85;;;2.05;;
37943;SDS011;23767;42.024;23.086;2023-10-19T13:37:22;5.95;;;1.80;;
37943;SDS011;23767;42.024;23.086;2023-10-19T13:39:48;6.15;;;2.35;;
37943;SDS011;23767;42.024;23.086;2023-10-19T13:42:14;4.38;;;1.58;;
37943;SDS011;23767;42.024;23.086;2023-10-19T13:44:40;2.72;;;1.60;;
37943;SDS011;23767;42.024;23.086;2023-10-19T13:47:06;3.42;;;1.73;;
37943;SDS011;23767;42.024;23.086;2023-10-19T13:49:34;6.60;;;1.80;;
37943;SDS011;23767;42.024;23.086;2023-10-19T13:52:00;3.58;;;1.80;;
37943;SDS011;23767;42.024;23.086;2023-10-19T13:54:29;4.88;;;1.95;;
37943;SDS011;23767;42.024;23.086;2023-10-19T13:56:55;4.15;;;2.05;;
37943;SDS011;23767;42.024;23.086;2023-10-19T13:59:21;5.00;;;2.10;;
37943;SDS011;23767;42.024;23.086;2023-10-19T14:01:48;4.10;;;2.15;;
37943;SDS011;23767;42.024;23.086;2023-10-19T14:04:15;6.72;;;2.80;;
37943;SDS011;23767;42.024;23.086;2023-10-19T14:06:41;4.25;;;2.00;;
37943;SDS011;23767;42.024;23.086;2023-10-19T14:09:08;5.80;;;2.35;;
37943;SDS011;23767;42.024;23.086;2023-10-19T14:11:37;4.40;;;2.13;;
37943;SDS011;23767;42.024;23.086;2023-10-19T14:14:03;5.80;;;2.05;;
37943;SDS011;23767;42.024;23.086;2023-10-19T14:16:30;10.85;;;2.30;;
37943;SDS011;23767;42.024;23.086;2023-10-19T14:18:56;4.18;;;2.17;;
37943;SDS011;23767;42.024;23.086;2023-10-19T14:21:22;6.43;;;1.90;;
37943;SDS011;23767;42.024;23.086;2023-10-19T14:23:51;4.53;;;1.98;;
37943;SDS011;23767;42.024;23.086;2023-10-19T14:26:19;5.78;;;2.05;;
37943;SDS011;23767;42.024;23.086;2023-10-19T14:28:45;7.18;;;2.40;;
37943;SDS011;23767;42.024;23.086;2023-10-19T14:31:11;5.32;;;2.15;;
37943;SDS011;23767;42.024;23.086;2023-10-19T14:33:37;4.63;;;2.10;;
37943;SDS011;23767;42.024;23.086;2023-10-19T14:36:04;4.53;;;2.38;;
37943;SDS011;23767;42.024;23.086;2023-10-19T14:38:30;4.55;;;2.10;;
37943;SDS011;23767;42.024;23.086;2023-10-19T14:40:56;5.10;;;2.40;;
37943;SDS011;23767;42.024;23.086;2023-10-19T14:43:23;5.28;;;1.90;;
37943;SDS011;23767;42.024;23.086;2023-10-19T14:45:51;4.63;;;1.80;;
37943;SDS011;23767;42.024;23.086;2023-10-19T14:48:17;4.15;;;2.03;;
37943;SDS011;23767;42.024;23.086;2023-10-19T14:50:44;4.90;;;2.17;;
37943;SDS011;23767;42.024;23.086;2023-10-19T14:53:10;5.45;;;2.10;;
37943;SDS011;23767;42.024;23.086;2023-10-19T14:55:37;5.93;;;2.20;;
37943;SDS011;23767;42.024;23.086;2023-10-19T14:58:03;5.82;;;2.05;;
37943;SDS011;23767;42.024;23.086;2023-10-19T15:00:31;6.35;;;2.40;;